createdAt,value
2016-07-17T00:00:12.581Z,22.09
2016-07-17T00:01:12.590Z,22.08
2016-07-17T00:02:12.609Z,22.12
2016-07-17T00:03:12.602Z,22.05
2016-07-17T00:04:12.637Z,22.08
2016-07-17T00:05:12.618Z,22.14
2016-07-17T00:06:12.638Z,22.11
2016-07-17T00:07:12.627Z,22.14
2016-07-17T00:08:12.665Z,22.11
2016-07-17T00:09:12.657Z,22.11
2016-07-17T00:10:12.651Z,22.08
2016-07-17T00:11:12.663Z,22.14
2016-07-17T00:12:12.680Z,22.09
2016-07-17T00:13:12.687Z,22.12
2016-07-17T00:14:12.683Z,22.09
2016-07-17T00:15:12.699Z,22.07
2016-07-17T00:16:12.701Z,22.11
2016-07-17T00:17:12.715Z,22.08
2016-07-17T00:18:12.742Z,22.12
2016-07-17T00:19:12.744Z,22.11
2016-07-17T00:20:12.753Z,22.12
2016-07-17T00:21:12.768Z,22.07
2016-07-17T00:22:12.759Z,22.12
2016-07-17T00:23:12.784Z,22.05
2016-07-17T00:24:12.799Z,22.07
2016-07-17T00:25:12.811Z,22.04
2016-07-17T00:26:12.805Z,22.14
2016-07-17T00:27:12.827Z,22.14
2016-07-17T00:28:12.811Z,22.12
2016-07-17T00:29:12.795Z,22.14
2016-07-17T00:30:12.851Z,22.11
2016-07-17T00:31:12.835Z,22.07
2016-07-17T00:32:12.822Z,22.08
2016-07-17T00:33:12.846Z,22.05
2016-07-17T00:34:12.879Z,22.12
2016-07-17T00:35:12.868Z,22.12
2016-07-17T00:36:12.890Z,22.09
2016-07-17T00:37:12.871Z,22.11
2016-07-17T00:38:12.901Z,22.07
2016-07-17T00:39:12.914Z,22.12
2016-07-17T00:40:12.890Z,22.07
2016-07-17T00:41:12.892Z,22.07
2016-07-17T00:42:12.909Z,22.07
2016-07-17T00:43:12.913Z,22.15
2016-07-17T00:44:12.931Z,22.08
2016-07-17T00:45:12.954Z,22.11
2016-07-17T00:46:12.944Z,22.12
2016-07-17T00:47:12.961Z,22.05
2016-07-17T00:48:12.965Z,22.14
2016-07-17T00:49:12.967Z,22.04
2016-07-17T00:50:13.005Z,22.08
2016-07-17T00:51:12.975Z,22.07
2016-07-17T00:52:12.999Z,22.05
2016-07-17T00:53:12.999Z,22.09
2016-07-17T00:54:13.013Z,22.08
2016-07-17T00:55:13.027Z,22.08
2016-07-17T00:56:13.030Z,22.04
2016-07-17T00:57:13.042Z,22.04
2016-07-17T00:58:13.055Z,22.11
2016-07-17T00:59:13.051Z,22.07
2016-07-17T01:00:13.052Z,22.04
2016-07-17T01:01:13.064Z,22.08
2016-07-17T01:02:13.099Z,22.04
2016-07-17T01:03:13.100Z,22.05
2016-07-17T01:04:13.085Z,22.07
2016-07-17T01:05:13.095Z,22.07
2016-07-17T01:06:13.109Z,22.16
2016-07-17T01:07:13.106Z,22.14
2016-07-17T01:08:13.126Z,22.05
2016-07-17T01:09:13.159Z,22
2016-07-17T01:10:13.147Z,22.08
2016-07-17T01:11:13.155Z,22.05
2016-07-17T01:12:13.152Z,22.14
2016-07-17T01:13:13.181Z,22.07
2016-07-17T01:14:13.172Z,22.02
2016-07-17T01:15:13.168Z,22.07
2016-07-17T01:16:13.200Z,22.11
2016-07-17T01:17:13.183Z,22.08
2016-07-17T01:18:13.200Z,22.11
2016-07-17T01:19:13.209Z,22.02
2016-07-17T01:20:13.222Z,22
2016-07-17T01:21:13.230Z,22.02
2016-07-17T01:22:13.234Z,22.11
2016-07-17T01:23:13.239Z,22.09
2016-07-17T01:24:13.257Z,22.05
2016-07-17T01:25:13.273Z,21.99
2016-07-17T01:26:13.259Z,22.09
2016-07-17T01:27:13.278Z,22.04
2016-07-17T01:28:13.300Z,22.04
2016-07-17T01:29:14.001Z,22.14
2016-07-17T01:30:13.300Z,22.07
2016-07-17T01:31:13.309Z,22.04
2016-07-17T01:32:13.305Z,22.04
2016-07-17T01:33:13.313Z,22.09
2016-07-17T01:34:13.326Z,22.11
2016-07-17T01:35:13.345Z,22.04
2016-07-17T01:36:13.335Z,22.02
2016-07-17T01:37:13.371Z,22
2016-07-17T01:38:13.362Z,22.11
2016-07-17T01:39:13.385Z,22.07
2016-07-17T01:40:13.402Z,22.09
2016-07-17T01:41:13.370Z,22.02
2016-07-17T01:42:13.396Z,22.09
2016-07-17T01:43:13.421Z,22.02
2016-07-17T01:44:13.415Z,22
2016-07-17T01:45:13.419Z,22.08
2016-07-17T01:46:13.444Z,21.99
2016-07-17T01:47:13.436Z,22.05
2016-07-17T01:48:13.427Z,22.05
2016-07-17T01:49:13.479Z,22.05
2016-07-17T01:50:13.453Z,22.05
2016-07-17T01:51:13.476Z,22
2016-07-17T01:52:13.473Z,21.99
2016-07-17T01:53:13.495Z,21.99
2016-07-17T01:54:13.474Z,22.02
2016-07-17T01:55:13.506Z,21.99
2016-07-17T01:56:13.509Z,22.02
2016-07-17T01:57:13.512Z,22.02
2016-07-17T01:58:13.517Z,22.05
2016-07-17T01:59:13.537Z,22.02
2016-07-17T02:00:13.541Z,22.05
2016-07-17T02:01:13.549Z,22.08
2016-07-17T02:02:13.564Z,22.05
2016-07-17T02:03:13.555Z,22.08
2016-07-17T02:04:13.561Z,22.05
2016-07-17T02:05:13.587Z,22
2016-07-17T02:06:13.576Z,22.07
2016-07-17T02:07:13.593Z,21.94
2016-07-17T02:08:13.579Z,21.97
2016-07-17T02:09:13.616Z,21.9
2016-07-17T02:10:13.616Z,22
2016-07-17T02:11:13.619Z,22.02
2016-07-17T02:12:13.623Z,21.93
2016-07-17T02:13:13.635Z,22.04
2016-07-17T02:14:13.666Z,22.02
2016-07-17T02:15:13.643Z,22.04
2016-07-17T02:16:13.661Z,21.96
2016-07-17T02:17:13.654Z,21.92
2016-07-17T02:18:13.687Z,21.86
2016-07-17T02:19:13.685Z,21.9
2016-07-17T02:20:13.693Z,21.86
2016-07-17T02:21:13.700Z,21.9
2016-07-17T02:22:13.714Z,21.9
2016-07-17T02:23:13.737Z,22
2016-07-17T02:24:13.723Z,21.92
2016-07-17T02:25:13.740Z,21.9
2016-07-17T02:26:13.732Z,22
2016-07-17T02:27:13.735Z,21.89
2016-07-17T02:28:13.754Z,21.94
2016-07-17T02:29:13.753Z,21.92
2016-07-17T02:30:13.767Z,21.9
2016-07-17T02:31:13.780Z,21.83
2016-07-17T02:32:13.788Z,21.96
2016-07-17T02:33:13.792Z,21.9
2016-07-17T02:34:13.788Z,21.99
2016-07-17T02:35:13.825Z,21.85
2016-07-17T02:36:13.836Z,21.96
2016-07-17T02:37:13.812Z,21.97
2016-07-17T02:38:13.841Z,21.9
2016-07-17T02:39:13.865Z,21.9
2016-07-17T02:40:13.846Z,22.02
2016-07-17T02:41:13.844Z,21.99
2016-07-17T02:42:13.872Z,21.9
2016-07-17T02:43:13.886Z,22
2016-07-17T02:44:13.913Z,21.94
2016-07-17T02:45:13.884Z,21.96
2016-07-17T02:46:13.910Z,21.97
2016-07-17T02:47:13.911Z,21.99
2016-07-17T02:48:13.932Z,21.93
2016-07-17T02:49:13.931Z,21.9
2016-07-17T02:50:13.929Z,21.97
2016-07-17T02:51:13.929Z,21.96
2016-07-17T02:52:13.950Z,21.97
2016-07-17T02:53:13.963Z,21.86
2016-07-17T02:54:13.963Z,21.9
2016-07-17T02:55:13.983Z,21.97
2016-07-17T02:56:13.988Z,21.96
2016-07-17T02:57:13.993Z,22
2016-07-17T02:58:14.014Z,21.99
2016-07-17T02:59:13.990Z,22
2016-07-17T03:00:13.989Z,21.96
2016-07-17T03:01:14.020Z,21.99
2016-07-17T03:02:14.028Z,21.99
2016-07-17T03:03:14.028Z,21.97
2016-07-17T03:04:14.775Z,21.85
2016-07-17T03:05:14.047Z,21.92
2016-07-17T03:06:14.058Z,21.94
2016-07-17T03:07:14.078Z,21.92
2016-07-17T03:08:14.080Z,21.97
2016-07-17T03:09:14.077Z,21.96
2016-07-17T03:10:14.095Z,21.9
2016-07-17T03:11:14.108Z,21.94
2016-07-17T03:12:14.094Z,21.97
2016-07-17T03:13:14.098Z,21.9
2016-07-17T03:14:14.123Z,21.93
2016-07-17T03:15:14.149Z,21.92
2016-07-17T03:16:14.130Z,21.94
2016-07-17T03:17:14.146Z,21.93
2016-07-17T03:18:14.151Z,21.96
2016-07-17T03:19:14.182Z,21.93
2016-07-17T03:20:14.149Z,21.96
2016-07-17T03:21:14.185Z,21.92
2016-07-17T03:22:14.173Z,21.93
2016-07-17T03:23:14.189Z,21.94
2016-07-17T03:24:14.195Z,22
2016-07-17T03:25:14.223Z,21.94
2016-07-17T03:26:14.230Z,21.92
2016-07-17T03:27:14.229Z,21.97
2016-07-17T03:28:14.215Z,21.92
2016-07-17T03:29:14.241Z,21.9
2016-07-17T03:30:14.252Z,21.94
2016-07-17T03:31:14.268Z,21.93
2016-07-17T03:32:14.268Z,21.94
2016-07-17T03:33:14.274Z,21.92
2016-07-17T03:34:14.295Z,21.92
2016-07-17T03:35:14.270Z,21.93
2016-07-17T03:36:14.297Z,21.93
2016-07-17T03:37:14.298Z,21.89
2016-07-17T03:38:14.315Z,21.94
2016-07-17T03:39:14.316Z,21.94
2016-07-17T03:40:14.320Z,21.89
2016-07-17T03:41:14.327Z,21.9
2016-07-17T03:42:14.344Z,21.86
2016-07-17T03:43:14.375Z,21.92
2016-07-17T03:44:14.354Z,21.97
2016-07-17T03:45:14.366Z,21.96
2016-07-17T03:46:14.356Z,21.99
2016-07-17T03:47:14.387Z,21.92
2016-07-17T03:48:14.379Z,21.93
2016-07-17T03:49:14.383Z,21.9
2016-07-17T03:50:14.404Z,21.97
2016-07-17T03:51:14.412Z,21.94
2016-07-17T03:52:14.427Z,21.94
2016-07-17T03:53:14.422Z,21.96
2016-07-17T03:54:14.429Z,21.89
2016-07-17T03:55:14.427Z,21.9
2016-07-17T03:56:14.474Z,21.92
2016-07-17T03:57:14.475Z,21.9
2016-07-17T03:58:14.451Z,21.94
2016-07-17T03:59:14.490Z,21.93
2016-07-17T04:00:14.489Z,21.92
2016-07-17T04:01:14.551Z,21.97
2016-07-17T04:02:14.511Z,21.94
2016-07-17T04:03:14.495Z,21.99
2016-07-17T04:04:14.522Z,21.92
2016-07-17T04:05:14.504Z,21.92
2016-07-17T04:06:14.536Z,21.94
2016-07-17T04:07:14.533Z,21.94
2016-07-17T04:08:14.548Z,21.93
2016-07-17T04:09:14.577Z,21.89
2016-07-17T04:10:14.563Z,21.99
2016-07-17T04:11:14.595Z,21.92
2016-07-17T04:12:14.583Z,21.93
2016-07-17T04:13:14.586Z,21.93
2016-07-17T04:14:14.605Z,21.93
2016-07-17T04:15:14.596Z,21.94
2016-07-17T04:16:15.288Z,21.85
2016-07-17T04:17:14.625Z,22
2016-07-17T04:18:14.627Z,21.97
2016-07-17T04:19:14.619Z,21.92
2016-07-17T04:20:14.648Z,21.93
2016-07-17T04:21:14.652Z,21.93
2016-07-17T04:22:14.652Z,21.99
2016-07-17T04:23:14.647Z,21.97
2016-07-17T04:24:14.663Z,22.05
2016-07-17T04:25:14.690Z,21.92
2016-07-17T04:26:14.688Z,21.92
2016-07-17T04:27:14.680Z,21.96
2016-07-17T04:28:14.721Z,21.97
2016-07-17T04:29:14.697Z,21.93
2016-07-17T04:30:14.716Z,22
2016-07-17T04:31:14.741Z,21.96
2016-07-17T04:32:14.754Z,21.85
2016-07-17T04:33:14.741Z,21.97
2016-07-17T04:34:14.756Z,21.94
2016-07-17T04:35:14.743Z,21.97
2016-07-17T04:36:14.771Z,21.94
2016-07-17T04:37:14.769Z,21.93
2016-07-17T04:38:14.773Z,21.96
2016-07-17T04:39:14.794Z,21.97
2016-07-17T04:40:14.799Z,21.96
2016-07-17T04:41:14.820Z,21.94
2016-07-17T04:42:14.816Z,21.94
2016-07-17T04:43:14.830Z,21.97
2016-07-17T04:44:14.836Z,21.93
2016-07-17T04:45:14.827Z,21.96
2016-07-17T04:46:14.864Z,21.96
2016-07-17T04:47:14.851Z,21.85
2016-07-17T04:48:14.871Z,21.93
2016-07-17T04:49:14.872Z,21.92
2016-07-17T04:50:14.879Z,21.97
2016-07-17T04:51:14.881Z,21.93
2016-07-17T04:52:14.912Z,21.93
2016-07-17T04:53:14.895Z,22
2016-07-17T04:54:14.901Z,21.94
2016-07-17T04:55:14.910Z,21.99
2016-07-17T04:56:14.924Z,21.92
2016-07-17T04:57:14.915Z,22
2016-07-17T04:58:14.921Z,21.97
2016-07-17T04:59:14.924Z,22.02
2016-07-17T05:00:14.958Z,21.96
2016-07-17T05:01:15.214Z,22
2016-07-17T05:02:14.990Z,22
2016-07-17T05:03:15.002Z,21.96
2016-07-17T05:04:14.992Z,21.96
2016-07-17T05:05:14.998Z,21.92
2016-07-17T05:06:15.002Z,21.9
2016-07-17T05:07:15.002Z,21.86
2016-07-17T05:08:15.022Z,21.96
2016-07-17T05:09:15.028Z,21.96
2016-07-17T05:10:15.024Z,22
2016-07-17T05:11:15.042Z,21.94
2016-07-17T05:12:15.033Z,21.86
2016-07-17T05:13:15.058Z,22.02
2016-07-17T05:14:15.068Z,22.04
2016-07-17T05:15:15.088Z,21.85
2016-07-17T05:16:15.102Z,21.96
2016-07-17T05:17:15.087Z,21.96
2016-07-17T05:18:15.093Z,21.97
2016-07-17T05:19:15.112Z,21.97
2016-07-17T05:20:15.129Z,21.97
2016-07-17T05:21:15.101Z,21.86
2016-07-17T05:22:15.119Z,21.97
2016-07-17T05:23:15.140Z,21.99
2016-07-17T05:24:15.141Z,21.96
2016-07-17T05:25:15.146Z,21.9
2016-07-17T05:26:15.150Z,21.83
2016-07-17T05:27:15.164Z,21.99
2016-07-17T05:28:15.191Z,21.99
2016-07-17T05:29:15.201Z,21.97
2016-07-17T05:30:15.191Z,21.93
2016-07-17T05:31:15.198Z,21.85
2016-07-17T05:32:15.197Z,21.86
2016-07-17T05:33:15.203Z,22.02
2016-07-17T05:34:15.212Z,21.97
2016-07-17T05:35:15.239Z,22.02
2016-07-17T05:36:15.227Z,21.83
2016-07-17T05:37:15.250Z,21.99
2016-07-17T05:38:15.253Z,22.02
2016-07-17T05:39:15.273Z,21.97
2016-07-17T05:40:15.992Z,21.97
2016-07-17T05:41:15.271Z,21.92
2016-07-17T05:42:15.261Z,21.85
2016-07-17T05:43:15.290Z,22
2016-07-17T05:44:15.307Z,21.99
2016-07-17T05:45:15.327Z,21.86
2016-07-17T05:46:15.319Z,21.92
2016-07-17T05:47:15.318Z,21.85
2016-07-17T05:48:15.326Z,21.99
2016-07-17T05:49:15.319Z,21.86
2016-07-17T05:50:15.346Z,21.94
2016-07-17T05:51:15.360Z,21.99
2016-07-17T05:52:15.344Z,22.02
2016-07-17T05:53:15.377Z,21.99
2016-07-17T05:54:15.383Z,22.08
2016-07-17T05:55:15.373Z,22.02
2016-07-17T05:56:15.381Z,22.04
2016-07-17T05:57:15.415Z,22
2016-07-17T05:58:15.414Z,22.05
2016-07-17T05:59:15.412Z,22.07
2016-07-17T06:00:15.425Z,22.04
2016-07-17T06:01:15.597Z,22.05
2016-07-17T06:02:15.427Z,22.02
2016-07-17T06:03:15.450Z,22.05
2016-07-17T06:04:15.450Z,22.07
2016-07-17T06:05:15.455Z,22.04
2016-07-17T06:06:15.483Z,22.07
2016-07-17T06:07:15.491Z,22.04
2016-07-17T06:08:15.500Z,22.04
2016-07-17T06:09:15.500Z,22.05
2016-07-17T06:10:15.490Z,22
2016-07-17T06:11:15.528Z,22.04
2016-07-17T06:12:15.505Z,22.08
2016-07-17T06:13:15.542Z,22.04
2016-07-17T06:14:15.549Z,22.09
2016-07-17T06:15:15.522Z,22
2016-07-17T06:16:15.534Z,22.02
2016-07-17T06:17:15.551Z,22.08
2016-07-17T06:18:15.583Z,22.08
2016-07-17T06:19:15.576Z,22.11
2016-07-17T06:20:15.561Z,22.02
2016-07-17T06:21:15.599Z,22.09
2016-07-17T06:22:15.599Z,22.02
2016-07-17T06:23:15.617Z,22.02
2016-07-17T06:24:15.619Z,22
2016-07-17T06:25:15.632Z,22.07
2016-07-17T06:26:15.621Z,22.11
2016-07-17T06:27:15.628Z,22.08
2016-07-17T06:28:15.644Z,22.12
2016-07-17T06:29:15.643Z,22.05
2016-07-17T06:30:15.688Z,22.14
2016-07-17T06:31:15.662Z,22.08
2016-07-17T06:32:15.681Z,22.11
2016-07-17T06:33:15.708Z,22.09
2016-07-17T06:34:15.689Z,22.04
2016-07-17T06:35:15.716Z,22.02
2016-07-17T06:36:15.700Z,22.08
2016-07-17T06:37:15.727Z,22.09
2016-07-17T06:38:15.738Z,22.07
2016-07-17T06:39:15.735Z,22.08
2016-07-17T06:40:15.725Z,22.09
2016-07-17T06:41:15.742Z,22.05
2016-07-17T06:42:15.756Z,22.11
2016-07-17T06:43:15.756Z,22
2016-07-17T06:44:15.756Z,22.04
2016-07-17T06:45:15.781Z,22.11
2016-07-17T06:46:15.771Z,22.07
2016-07-17T06:47:15.807Z,22.07
2016-07-17T06:48:15.784Z,22.05
2016-07-17T06:49:16.517Z,22.05
2016-07-17T06:50:15.820Z,22.02
2016-07-17T06:51:15.849Z,22.05
2016-07-17T06:52:15.840Z,22.05
2016-07-17T06:53:15.823Z,22.08
2016-07-17T06:54:15.865Z,22.02
2016-07-17T06:55:15.861Z,22.04
2016-07-17T06:56:15.867Z,22.08
2016-07-17T06:57:15.875Z,22.04
2016-07-17T06:58:15.874Z,22
2016-07-17T06:59:15.891Z,22.08
2016-07-17T07:00:15.899Z,22.09
2016-07-17T07:01:15.900Z,22.02
2016-07-17T07:02:15.906Z,22.02
2016-07-17T07:03:15.909Z,22
2016-07-17T07:04:15.925Z,22.04
2016-07-17T07:05:15.945Z,22.08
2016-07-17T07:06:15.932Z,22.02
2016-07-17T07:07:15.966Z,22.14
2016-07-17T07:08:15.980Z,22.04
2016-07-17T07:09:15.961Z,22.08
2016-07-17T07:10:15.977Z,22.05
2016-07-17T07:11:15.980Z,22.05
2016-07-17T07:12:15.975Z,22.05
2016-07-17T07:13:15.979Z,22.05
2016-07-17T07:14:16.026Z,22.04
2016-07-17T07:15:16.023Z,22.07
2016-07-17T07:16:16.014Z,22.04
2016-07-17T07:17:16.047Z,22.14
2016-07-17T07:18:16.059Z,22.12
2016-07-17T07:19:16.030Z,22.04
2016-07-17T07:20:16.046Z,22.04
2016-07-17T07:21:16.066Z,22.02
2016-07-17T07:22:16.058Z,22.08
2016-07-17T07:23:16.081Z,22.08
2016-07-17T07:24:16.094Z,22.08
2016-07-17T07:25:16.090Z,22.09
2016-07-17T07:26:16.106Z,22.12
2016-07-17T07:27:16.107Z,22.11
2016-07-17T07:28:16.120Z,22.07
2016-07-17T07:29:16.120Z,22.04
2016-07-17T07:30:16.132Z,22.08
2016-07-17T07:31:16.160Z,22.07
2016-07-17T07:32:16.148Z,22.08
2016-07-17T07:33:16.170Z,22.11
2016-07-17T07:34:16.167Z,22.12
2016-07-17T07:35:16.161Z,22.12
2016-07-17T07:36:16.175Z,22.08
2016-07-17T07:37:16.184Z,22.11
2016-07-17T07:38:16.190Z,22.05
2016-07-17T07:39:16.204Z,22.12
2016-07-17T07:40:16.220Z,22.14
2016-07-17T07:41:16.197Z,22.14
2016-07-17T07:42:16.217Z,22.14
2016-07-17T07:43:16.234Z,22.22
2016-07-17T07:44:16.227Z,22.22
2016-07-17T07:45:16.236Z,22.18
2016-07-17T07:46:16.251Z,22.23
2016-07-17T07:47:16.280Z,22.2
2016-07-17T07:48:16.277Z,22.23
2016-07-17T07:49:16.267Z,22.16
2016-07-17T07:50:16.264Z,22.22
2016-07-17T07:51:16.278Z,22.15
2016-07-17T07:52:16.308Z,22.16
2016-07-17T07:53:16.329Z,22.24
2016-07-17T07:54:16.315Z,22.23
2016-07-17T07:55:16.347Z,22.23
2016-07-17T07:56:16.334Z,22.27
2016-07-17T07:57:16.371Z,22.24
2016-07-17T07:58:16.356Z,22.18
2016-07-17T07:59:16.362Z,22.14
2016-07-17T08:00:16.359Z,22.24
2016-07-17T08:01:16.375Z,22.18
2016-07-17T08:02:16.382Z,22.08
2016-07-17T08:03:16.388Z,22.18
2016-07-17T08:04:16.406Z,22.22
2016-07-17T08:05:16.411Z,22.14
2016-07-17T08:06:16.423Z,22.18
2016-07-17T08:07:16.417Z,22.23
2016-07-17T08:08:16.449Z,22.2
2016-07-17T08:09:16.426Z,22.23
2016-07-17T08:10:16.461Z,22.22
2016-07-17T08:11:16.450Z,22.15
2016-07-17T08:12:16.471Z,22.2
2016-07-17T08:13:16.477Z,22.18
2016-07-17T08:14:16.482Z,22.33
2016-07-17T08:15:16.493Z,22.36
2016-07-17T08:16:16.473Z,22.18
2016-07-17T08:17:16.515Z,22.33
2016-07-17T08:18:16.524Z,22.24
2016-07-17T08:19:16.520Z,22.33
2016-07-17T08:20:16.577Z,22.39
2016-07-17T08:21:16.534Z,22.41
2016-07-17T08:22:16.541Z,22.34
2016-07-17T08:23:16.542Z,22.38
2016-07-17T08:24:16.572Z,22.3
2016-07-17T08:25:16.563Z,22.39
2016-07-17T08:26:16.579Z,22.38
2016-07-17T08:27:16.564Z,22.38
2016-07-17T08:28:16.575Z,22.41
2016-07-17T08:29:16.575Z,22.44
2016-07-17T08:30:16.591Z,22.36
2016-07-17T08:31:16.594Z,22.38
2016-07-17T08:32:16.599Z,22.38
2016-07-17T08:33:16.609Z,22.44
2016-07-17T08:34:16.640Z,22.34
2016-07-17T08:35:16.649Z,22.34
2016-07-17T08:36:16.643Z,22.44
2016-07-17T08:37:16.668Z,22.34
2016-07-17T08:38:16.660Z,22.44
2016-07-17T08:39:16.667Z,22.39
2016-07-17T08:40:16.690Z,22.38
2016-07-17T08:41:17.381Z,22.38
2016-07-17T08:42:16.684Z,22.38
2016-07-17T08:43:16.700Z,22.41
2016-07-17T08:44:16.722Z,22.45
2016-07-17T08:45:16.735Z,22.38
2016-07-17T08:46:16.732Z,22.42
2016-07-17T08:47:16.750Z,22.44
2016-07-17T08:48:16.734Z,22.41
2016-07-17T08:49:16.732Z,22.41
2016-07-17T08:50:16.741Z,22.42
2016-07-17T08:51:16.746Z,22.45
2016-07-17T08:52:16.785Z,22.52
2016-07-17T08:53:16.778Z,22.63
2016-07-17T08:54:16.791Z,22.51
2016-07-17T08:55:16.802Z,22.51
2016-07-17T08:56:16.815Z,22.6
2016-07-17T08:57:16.796Z,22.59
2016-07-17T08:58:16.830Z,22.64
2016-07-17T08:59:16.819Z,22.6
2016-07-17T09:00:16.833Z,22.59
2016-07-17T09:01:16.856Z,22.6
2016-07-17T09:02:16.824Z,22.55
2016-07-17T09:03:16.866Z,22.54
2016-07-17T09:04:16.896Z,22.61
2016-07-17T09:05:16.853Z,22.59
2016-07-17T09:06:16.871Z,22.6
2016-07-17T09:07:16.882Z,22.57
2016-07-17T09:08:16.900Z,22.54
2016-07-17T09:09:16.884Z,22.6
2016-07-17T09:10:16.909Z,22.6
2016-07-17T09:11:16.920Z,22.6
2016-07-17T09:12:16.933Z,22.6
2016-07-17T09:13:16.944Z,22.6
2016-07-17T09:14:16.936Z,22.6
2016-07-17T09:15:16.960Z,22.55
2016-07-17T09:16:16.947Z,22.55
2016-07-17T09:17:16.978Z,22.59
2016-07-17T09:18:16.973Z,22.57
2016-07-17T09:19:16.989Z,22.6
2016-07-17T09:20:16.995Z,22.66
2016-07-17T09:21:16.990Z,22.73
2016-07-17T09:22:17.010Z,22.66
2016-07-17T09:23:17.012Z,22.67
2016-07-17T09:24:17.023Z,22.69
2016-07-17T09:25:17.034Z,22.73
2016-07-17T09:26:17.061Z,22.73
2016-07-17T09:27:17.044Z,22.73
2016-07-17T09:28:17.068Z,22.7
2016-07-17T09:29:17.077Z,22.67
2016-07-17T09:30:17.064Z,22.78
2016-07-17T09:31:17.095Z,22.79
2016-07-17T09:32:17.103Z,22.69
2016-07-17T09:33:17.091Z,22.81
2016-07-17T09:34:17.095Z,22.82
2016-07-17T09:35:17.096Z,22.84
2016-07-17T09:36:17.101Z,22.88
2016-07-17T09:37:17.130Z,22.94
2016-07-17T09:38:17.145Z,22.96
2016-07-17T09:39:17.152Z,22.92
2016-07-17T09:40:17.146Z,22.91
2016-07-17T09:41:17.144Z,22.89
2016-07-17T09:42:17.166Z,22.94
2016-07-17T09:43:17.187Z,22.85
2016-07-17T09:44:17.174Z,22.88
2016-07-17T09:45:17.194Z,22.89
2016-07-17T09:46:17.195Z,22.89
2016-07-17T09:47:17.194Z,22.96
2016-07-17T09:48:17.224Z,22.89
2016-07-17T09:49:17.219Z,22.91
2016-07-17T09:50:17.226Z,22.99
2016-07-17T09:51:17.223Z,23.07
2016-07-17T09:52:17.231Z,23.07
2016-07-17T09:53:17.974Z,23.03
2016-07-17T09:54:17.268Z,23.07
2016-07-17T09:55:17.280Z,23.07
2016-07-17T09:56:17.290Z,23.07
2016-07-17T09:57:17.291Z,23.06
2016-07-17T09:58:17.288Z,23.06
2016-07-17T09:59:17.319Z,23.07
2016-07-17T10:00:17.330Z,23.1
2016-07-17T10:01:17.314Z,23.06
2016-07-17T10:02:17.479Z,23.1
2016-07-17T10:03:17.321Z,23.16
2016-07-17T10:04:17.349Z,23.1
2016-07-17T10:05:17.356Z,23.07
2016-07-17T10:06:17.369Z,23.09
2016-07-17T10:07:17.352Z,23.1
2016-07-17T10:08:17.369Z,23.14
2016-07-17T10:09:17.394Z,23.12
2016-07-17T10:10:17.379Z,23.14
2016-07-17T10:11:17.399Z,23.09
2016-07-17T10:12:17.417Z,23.15
2016-07-17T10:13:17.408Z,23.16
2016-07-17T10:14:17.436Z,23.19
2016-07-17T10:15:17.451Z,23.16
2016-07-17T10:16:17.422Z,23.19
2016-07-17T10:17:17.429Z,23.18
2016-07-17T10:18:17.460Z,23.22
2016-07-17T10:19:17.459Z,23.21
2016-07-17T10:20:17.484Z,23.21
2016-07-17T10:21:17.481Z,23.18
2016-07-17T10:22:17.480Z,23.19
2016-07-17T10:23:17.499Z,23.21
2016-07-17T10:24:17.525Z,23.14
2016-07-17T10:25:17.498Z,23.22
2016-07-17T10:26:17.531Z,23.15
2016-07-17T10:27:17.528Z,23.22
2016-07-17T10:28:17.521Z,23.24
2016-07-17T10:29:17.558Z,23.24
2016-07-17T10:30:17.547Z,23.19
2016-07-17T10:31:17.542Z,23.32
2016-07-17T10:32:17.553Z,23.35
2016-07-17T10:33:17.579Z,23.37
2016-07-17T10:34:17.605Z,23.38
2016-07-17T10:35:17.576Z,23.29
2016-07-17T10:36:17.621Z,23.38
2016-07-17T10:37:17.601Z,23.35
2016-07-17T10:38:17.620Z,23.4
2016-07-17T10:39:17.616Z,23.38
2016-07-17T10:40:17.632Z,23.35
2016-07-17T10:41:17.644Z,23.32
2016-07-17T10:42:17.651Z,23.35
2016-07-17T10:43:17.646Z,23.34
2016-07-17T10:44:17.644Z,23.29
2016-07-17T10:45:17.683Z,23.32
2016-07-17T10:46:17.709Z,23.37
2016-07-17T10:47:17.699Z,23.37
2016-07-17T10:48:17.705Z,23.44
2016-07-17T10:49:17.727Z,23.38
2016-07-17T10:50:17.717Z,23.4
2016-07-17T10:51:17.706Z,23.48
2016-07-17T10:52:17.728Z,23.42
2016-07-17T10:53:17.735Z,23.55
2016-07-17T10:54:17.909Z,23.41
2016-07-17T10:55:17.776Z,23.53
2016-07-17T10:56:17.763Z,23.53
2016-07-17T10:57:17.770Z,23.56
2016-07-17T10:58:17.764Z,23.5
2016-07-17T10:59:17.798Z,23.53
2016-07-17T11:00:17.795Z,23.6
2016-07-17T11:01:17.789Z,23.6
2016-07-17T11:02:17.884Z,23.6
2016-07-17T11:03:17.832Z,23.56
2016-07-17T11:04:17.830Z,23.57
2016-07-17T11:05:17.839Z,23.63
2016-07-17T11:06:17.855Z,23.6
2016-07-17T11:07:17.856Z,23.59
2016-07-17T11:08:17.871Z,23.55
2016-07-17T11:09:17.876Z,23.6
2016-07-17T11:10:17.880Z,23.55
2016-07-17T11:11:17.914Z,23.63
2016-07-17T11:12:17.892Z,23.62
2016-07-17T11:13:17.912Z,23.66
2016-07-17T11:14:17.913Z,23.64
2016-07-17T11:15:17.922Z,23.71
2016-07-17T11:16:17.949Z,23.72
2016-07-17T11:17:17.943Z,23.67
2016-07-17T11:18:17.956Z,23.72
2016-07-17T11:19:17.944Z,23.66
2016-07-17T11:20:17.978Z,23.67
2016-07-17T11:21:17.978Z,23.63
2016-07-17T11:22:17.972Z,23.59
2016-07-17T11:23:17.986Z,23.7
2016-07-17T11:24:18.022Z,23.66
2016-07-17T11:25:18.004Z,23.64
2016-07-17T11:26:18.016Z,23.64
2016-07-17T11:27:18.048Z,23.53
2016-07-17T11:28:18.034Z,23.63
2016-07-17T11:29:18.032Z,23.56
2016-07-17T11:30:18.058Z,23.56
2016-07-17T11:31:18.058Z,23.53
2016-07-17T11:32:18.071Z,23.53
2016-07-17T11:33:18.094Z,23.55
2016-07-17T11:34:18.088Z,23.53
2016-07-17T11:35:18.081Z,23.53
2016-07-17T11:36:18.107Z,23.55
2016-07-17T11:37:18.118Z,23.6
2016-07-17T11:38:18.126Z,23.62
2016-07-17T11:39:18.124Z,23.67
2016-07-17T11:40:18.151Z,23.67
2016-07-17T11:41:18.157Z,23.67
2016-07-17T11:42:18.142Z,23.62
2016-07-17T11:43:18.157Z,23.75
2016-07-17T11:44:18.164Z,23.63
2016-07-17T11:45:18.176Z,23.67
2016-07-17T11:46:18.176Z,23.63
2016-07-17T11:47:18.169Z,23.67
2016-07-17T11:48:18.196Z,23.75
2016-07-17T11:49:18.230Z,23.77
2016-07-17T11:50:18.221Z,23.82
2016-07-17T11:51:18.223Z,23.87
2016-07-17T11:52:18.249Z,23.87
2016-07-17T11:53:18.251Z,23.9
2016-07-17T11:54:18.267Z,23.94
2016-07-17T11:55:18.244Z,23.93
2016-07-17T11:56:18.287Z,24.03
2016-07-17T11:57:18.303Z,24.07
2016-07-17T11:58:18.289Z,24
2016-07-17T11:59:18.299Z,24.02
2016-07-17T12:00:18.303Z,24.08
2016-07-17T12:01:18.331Z,24.11
2016-07-17T12:02:18.322Z,24
2016-07-17T12:03:18.338Z,24.04
2016-07-17T12:04:18.347Z,24.11
2016-07-17T12:05:18.347Z,24.09
2016-07-17T12:06:18.370Z,24.09
2016-07-17T12:07:18.367Z,24.11
2016-07-17T12:08:18.370Z,24.07
2016-07-17T12:09:18.392Z,24.09
2016-07-17T12:10:18.386Z,24.09
2016-07-17T12:11:18.385Z,24.14
2016-07-17T12:12:18.396Z,24.12
2016-07-17T12:13:18.413Z,24.19
2016-07-17T12:14:18.417Z,24.21
2016-07-17T12:15:18.425Z,24.22
2016-07-17T12:16:18.445Z,24.12
2016-07-17T12:17:18.458Z,24.27
2016-07-17T12:18:18.458Z,24.26
2016-07-17T12:19:18.453Z,24.18
2016-07-17T12:20:18.467Z,24.27
2016-07-17T12:21:18.474Z,24.24
2016-07-17T12:22:18.502Z,24.21
2016-07-17T12:23:18.500Z,24.19
2016-07-17T12:24:18.511Z,24.18
2016-07-17T12:25:18.538Z,24.14
2016-07-17T12:26:18.524Z,24.15
2016-07-17T12:27:18.545Z,24.29
2016-07-17T12:28:18.552Z,24.27
2016-07-17T12:29:18.541Z,24.19
2016-07-17T12:30:18.557Z,24.17
2016-07-17T12:31:18.571Z,24.26
2016-07-17T12:32:18.590Z,24.18
2016-07-17T12:33:18.590Z,24.3
2016-07-17T12:34:18.608Z,24.19
2016-07-17T12:35:18.608Z,24.32
2016-07-17T12:36:18.626Z,24.24
2016-07-17T12:37:18.621Z,24.19
2016-07-17T12:38:18.629Z,24.15
2016-07-17T12:39:18.627Z,24.17
2016-07-17T12:40:18.643Z,24.19
2016-07-17T12:41:18.645Z,24.27
2016-07-17T12:42:18.663Z,24.24
2016-07-17T12:43:18.683Z,24.19
2016-07-17T12:44:18.683Z,24.15
2016-07-17T12:45:18.672Z,24.21
2016-07-17T12:46:18.690Z,24.19
2016-07-17T12:47:18.710Z,24.22
2016-07-17T12:48:18.722Z,24.24
2016-07-17T12:49:18.708Z,24.12
2016-07-17T12:50:18.718Z,24.17
2016-07-17T12:51:18.747Z,24.15
2016-07-17T12:52:18.753Z,24.14
2016-07-17T12:53:18.761Z,24.17
2016-07-17T12:54:18.744Z,24.19
2016-07-17T12:55:18.762Z,24.15
2016-07-17T12:56:18.772Z,24.17
2016-07-17T12:57:18.795Z,24.18